Time;durP1;ratioP1;P1;durP2;ratioP2;P2;SDS_P1;SDS_P2;PMS_P1;PMS_P2;Temp;Humidity;BMP_temperature;BMP_pressure;BME280_temperature;BME280_humidity;BME280_pressure;Samples;Min_cycle;Max_cycle;Signal;HPM_P1;HPM_P2
2021/07/24 00:01:13;;;;;;;20.40;14.85;;;;;;;23.29;100.00;95906.53;5005648;28;20073;-54
2021/07/24 00:03:42;;;;;;;26.38;15.57;;;;;;;23.64;100.00;95903.72;5005376;28;20053;-57
2021/07/24 00:06:11;;;;;;;21.52;16.23;;;;;;;23.24;100.00;95902.94;5001954;28;20077;-55
2021/07/24 00:08:39;;;;;;;21.10;15.93;;;;;;;23.76;100.00;95895.63;5004583;28;20076;-53
2021/07/24 00:11:09;;;;;;;22.42;16.85;;;;;;;23.96;100.00;95894.38;5007738;28;20081;-57
2021/07/24 00:13:39;;;;;;;28.17;16.65;;;;;;;23.97;100.00;95904.06;5005097;28;20132;-55
2021/07/24 00:16:09;;;;;;;20.08;14.77;;;;;;;23.84;100.00;95897.91;5000951;28;20069;-54
2021/07/24 00:18:37;;;;;;;20.98;14.95;;;;;;;23.91;100.00;95898.56;5004043;28;21480;-52
2021/07/24 00:21:06;;;;;;;22.25;15.00;;;;;;;22.93;100.00;95903.09;5003884;28;20069;-53
2021/07/24 00:23:34;;;;;;;23.65;15.80;;;;;;;23.54;100.00;95898.16;5003948;28;20085;-54
2021/07/24 00:26:03;;;;;;;22.73;14.80;;;;;;;23.65;100.00;95897.28;5008116;28;20092;-53
2021/07/24 00:28:31;;;;;;;20.83;15.57;;;;;;;23.68;100.00;95896.84;5006888;28;20078;-57
2021/07/24 00:31:00;;;;;;;21.60;15.80;;;;;;;23.50;100.00;95896.97;5004301;28;20065;-53
2021/07/24 00:33:29;;;;;;;19.40;15.10;;;;;;;23.94;100.00;95891.91;5003810;28;20073;-53
2021/07/24 00:35:58;;;;;;;22.52;15.77;;;;;;;23.66;100.00;95884.63;5004802;28;20066;-55
2021/07/24 00:38:26;;;;;;;19.83;14.70;;;;;;;23.89;100.00;95876.47;5004320;28;20078;-54
2021/07/24 00:40:56;;;;;;;20.67;15.23;;;;;;;23.82;100.00;95880.38;5007651;28;20105;-53
2021/07/24 00:43:26;;;;;;;21.25;15.43;;;;;;;23.45;100.00;95875.38;5003390;28;20077;-52
2021/07/24 00:45:56;;;;;;;22.67;15.63;;;;;;;23.83;100.00;95863.16;5005899;28;20077;-57
2021/07/24 00:48:25;;;;;;;22.30;15.18;;;;;;;23.71;100.00;95862.41;5003418;28;20070;-56
2021/07/24 00:50:57;;;;;;;19.98;14.23;;;;;;;23.65;100.00;95861.47;5002860;28;20567;-57
2021/07/24 00:53:34;;;;;;;24.30;14.82;;;;;;;23.90;100.00;95859.25;5004367;28;20077;-55
2021/07/24 00:56:04;;;;;;;19.38;14.60;;;;;;;23.94;100.00;95848.81;5008354;28;20126;-54
2021/07/24 00:58:35;;;;;;;17.53;13.97;;;;;;;23.67;100.00;95849.44;5003105;28;20084;-55
2021/07/24 01:01:04;;;;;;;23.83;16.42;;;;;;;23.84;100.00;95841.38;5005115;28;20081;-54
2021/07/24 01:03:33;;;;;;;21.55;16.75;;;;;;;23.66;100.00;95852.34;5004734;28;20061;-55
2021/07/24 01:06:03;;;;;;;19.95;15.43;;;;;;;23.53;100.00;95845.38;5005556;28;20464;-53
2021/07/24 01:08:33;;;;;;;24.15;16.40;;;;;;;23.44;100.00;95850.34;5003674;28;20479;-53
2021/07/24 01:11:01;;;;;;;23.20;16.80;;;;;;;23.47;100.00;95849.03;5007270;28;20089;-52
2021/07/24 01:13:30;;;;;;;25.35;17.73;;;;;;;23.06;100.00;95845.56;5004465;28;20069;-56
2021/07/24 01:15:58;;;;;;;26.92;18.40;;;;;;;23.13;100.00;95845.41;5004437;28;20071;-58
2021/07/24 01:18:26;;;;;;;21.92;16.63;;;;;;;23.15;100.00;95840.59;5004209;28;20066;-56
2021/07/24 01:20:57;;;;;;;23.02;16.98;;;;;;;22.97;100.00;95834.34;5006864;28;20542;-57
2021/07/24 01:23:27;;;;;;;22.90;16.77;;;;;;;23.42;100.00;95833.59;5008779;28;20571;-57
2021/07/24 01:25:55;;;;;;;23.60;16.70;;;;;;;23.10;100.00;95840.53;5010649;28;20610;-55
2021/07/24 01:28:24;;;;;;;22.42;16.23;;;;;;;22.99;100.00;95828.75;5006692;28;20107;-59
2021/07/24 01:30:53;;;;;;;22.33;16.65;;;;;;;23.05;100.00;95837.72;5009129;28;20088;-55
2021/07/24 01:33:22;;;;;;;22.75;16.50;;;;;;;22.97;100.00;95845.09;5008187;28;20600;-57
2021/07/24 01:35:51;;;;;;;21.58;16.77;;;;;;;23.07;100.00;95841.00;4989024;28;20068;-54
2021/07/24 01:38:21;;;;;;;23.83;17.52;;;;;;;22.77;100.00;95836.56;5011525;28;20069;-55
2021/07/24 01:40:51;;;;;;;24.52;18.23;;;;;;;22.92;100.00;95836.94;5008130;28;20456;-55
2021/07/24 01:43:19;;;;;;;27.40;17.67;;;;;;;22.48;100.00;95833.81;5007053;28;20061;-55
2021/07/24 01:45:48;;;;;;;24.13;16.88;;;;;;;22.59;100.00;95831.34;5005968;28;20088;-55
2021/07/24 01:48:18;;;;;;;23.92;18.50;;;;;;;22.09;100.00;95829.91;5005815;28;20054;-53
2021/07/24 01:53:33;;;;;;;25.75;16.48;;;;;;;22.31;100.00;95824.84;5007343;28;20088;-53
2021/07/24 01:56:05;;;;;;;23.35;17.02;;;;;;;21.94;100.00;95829.56;5009852;28;20092;-54
2021/07/24 01:58:52;;;;;;;21.85;16.35;;;;;;;22.20;100.00;95831.84;5009253;28;20045;-52
2021/07/24 02:01:21;;;;;;;22.42;16.13;;;;;;;22.45;100.00;95830.78;5006662;28;20072;-53
2021/07/24 02:03:54;;;;;;;26.63;16.90;;;;;;;22.50;100.00;95828.19;5006456;28;20125;-56
2021/07/24 02:06:22;;;;;;;24.92;16.13;;;;;;;22.48;100.00;95825.75;5007789;28;20084;-55
2021/07/24 02:08:51;;;;;;;23.08;17.05;;;;;;;21.93;100.00;95812.63;5007861;28;20077;-53
2021/07/24 02:11:21;;;;;;;21.25;16.23;;;;;;;21.94;100.00;95814.25;5008031;28;20516;-56
2021/07/24 02:13:50;;;;;;;22.98;17.10;;;;;;;22.13;100.00;95808.81;5005264;28;20449;-56
2021/07/24 02:16:19;;;;;;;24.20;17.45;;;;;;;22.25;100.00;95799.72;5008172;28;20068;-54
2021/07/24 02:18:49;;;;;;;28.77;17.63;;;;;;;22.33;100.00;95806.59;5007463;28;20443;-53
2021/07/24 02:21:18;;;;;;;22.88;17.17;;;;;;;22.51;100.00;95819.91;4991447;28;20057;-53
2021/07/24 02:23:46;;;;;;;21.75;15.82;;;;;;;22.35;100.00;95822.50;5007208;28;20084;-55
2021/07/24 02:26:15;;;;;;;19.92;15.30;;;;;;;22.16;100.00;95821.78;5008295;28;20073;-50
2021/07/24 02:28:44;;;;;;;22.05;15.18;;;;;;;22.02;100.00;95818.47;5006851;28;20103;-52
2021/07/24 02:31:13;;;;;;;21.50;15.73;;;;;;;21.45;100.00;95831.56;5007120;28;20115;-53
2021/07/24 02:33:41;;;;;;;22.00;15.38;;;;;;;21.32;100.00;95835.19;5005052;28;20074;-53
2021/07/24 02:36:09;;;;;;;21.10;15.10;;;;;;;21.43;100.00;95845.19;5007570;28;20076;-55
2021/07/24 02:38:38;;;;;;;20.85;15.52;;;;;;;21.36;100.00;95841.78;5006210;28;20092;-57
2021/07/24 02:41:06;;;;;;;19.15;13.60;;;;;;;21.18;100.00;95845.28;5007380;28;20085;-52
2021/07/24 02:43:34;;;;;;;18.55;13.82;;;;;;;21.46;100.00;95846.59;5007790;28;20092;-56
2021/07/24 02:46:04;;;;;;;19.52;12.98;;;;;;;21.25;100.00;95858.59;5007550;28;20072;-55
2021/07/24 02:48:32;;;;;;;19.55;13.70;;;;;;;21.63;100.00;95862.88;5005844;28;20069;-56
2021/07/24 02:51:01;;;;;;;19.38;14.57;;;;;;;21.33;100.00;95871.69;5007012;28;20093;-52
2021/07/24 02:53:29;;;;;;;19.52;15.13;;;;;;;20.92;100.00;95861.69;5005923;28;20140;-53
2021/07/24 02:55:57;;;;;;;22.65;17.17;;;;;;;21.42;100.00;95862.31;5009346;28;20503;-54
2021/07/24 02:58:26;;;;;;;23.65;17.08;;;;;;;21.55;100.00;95854.09;5005760;28;20058;-50
2021/07/24 03:00:54;;;;;;;22.42;17.42;;;;;;;21.79;100.00;95854.16;5007797;28;20070;-57
2021/07/24 03:03:24;;;;;;;27.50;17.48;;;;;;;21.56;100.00;95850.34;5005809;28;20741;-57
2021/07/24 03:05:53;;;;;;;23.05;16.08;;;;;;;21.73;100.00;95847.84;5005944;28;20065;-54
2021/07/24 03:08:21;;;;;;;23.15;17.55;;;;;;;21.66;100.00;95849.00;5004860;28;20084;-57
2021/07/24 03:10:49;;;;;;;26.42;17.42;;;;;;;21.67;100.00;95853.31;5006837;28;20252;-56
2021/07/24 03:13:18;;;;;;;24.83;16.85;;;;;;;21.80;100.00;95861.16;5000694;28;20065;-54
2021/07/24 03:15:46;;;;;;;22.00;17.15;;;;;;;21.14;100.00;95867.41;5004671;28;20077;-56
2021/07/24 03:18:15;;;;;;;23.02;17.33;;;;;;;21.47;100.00;95870.53;5006126;28;20069;-52
2021/07/24 03:20:44;;;;;;;24.15;16.75;;;;;;;21.96;100.00;95873.13;5004142;28;20143;-55
2021/07/24 03:23:13;;;;;;;23.80;17.33;;;;;;;22.17;100.00;95869.09;5007508;28;20472;-55
2021/07/24 03:25:42;;;;;;;22.70;16.85;;;;;;;22.30;100.00;95873.41;5007073;28;20481;-53
2021/07/24 03:28:10;;;;;;;21.63;16.40;;;;;;;22.28;100.00;95876.34;5004017;28;20069;-56
2021/07/24 03:30:39;;;;;;;24.48;16.73;;;;;;;21.54;100.00;95884.66;5005229;28;20062;-55
2021/07/24 03:33:07;;;;;;;24.52;16.60;;;;;;;21.77;100.00;95878.53;5007582;28;20076;-55
2021/07/24 03:35:36;;;;;;;22.33;16.58;;;;;;;21.64;100.00;95877.91;5004245;28;20483;-51
2021/07/24 03:38:06;;;;;;;22.83;15.77;;;;;;;21.45;100.00;95880.66;5010025;28;20085;-49
2021/07/24 03:40:34;;;;;;;;;;;;;;;21.48;100.00;95877.53;5006440;28;20493;-53
2021/07/24 03:43:03;;;;;;;22.42;16.00;;;;;;;21.89;100.00;95873.22;5004228;28;19957;-52
2021/07/24 03:45:33;;;;;;;20.30;15.75;;;;;;;22.22;100.00;95872.69;5003524;28;20458;-53
2021/07/24 03:48:02;;;;;;;24.95;17.35;;;;;;;22.33;100.00;95863.00;5006614;28;20038;-55
2021/07/24 03:50:31;;;;;;;27.45;19.17;;;;;;;22.22;100.00;95859.25;5005046;28;20086;-49
2021/07/24 03:53:00;;;;;;;27.10;19.23;;;;;;;22.11;100.00;95873.47;5007172;28;20081;-52
2021/07/24 03:55:30;;;;;;;28.67;19.20;;;;;;;21.98;100.00;95863.75;5000828;28;20076;-55
2021/07/24 03:58:00;;;;;;;27.55;18.73;;;;;;;22.19;100.00;95858.91;5007225;28;20073;-51
2021/07/24 04:00:34;;;;;;;26.42;18.58;;;;;;;21.97;100.00;95854.06;5005281;28;20751;-56
2021/07/24 04:03:02;;;;;;;23.52;18.10;;;;;;;21.92;100.00;95853.13;5005148;28;20516;-56
2021/07/24 04:05:34;;;;;;;23.63;17.42;;;;;;;21.57;100.00;95848.50;5006130;28;20544;-53
2021/07/24 04:08:02;;;;;;;25.73;18.30;;;;;;;22.62;100.00;95838.94;5009271;28;20078;-50
2021/07/24 04:10:34;;;;;;;28.35;16.88;;;;;;;22.92;100.00;95839.63;5003795;28;20536;-54
2021/07/24 04:13:02;;;;;;;23.15;16.25;;;;;;;23.55;100.00;95851.34;5007173;28;20073;-54
2021/07/24 04:15:31;;;;;;;25.27;16.75;;;;;;;24.55;89.51;95848.97;5005105;28;20068;-51
2021/07/24 04:17:59;;;;;;;21.98;16.15;;;;;;;24.17;89.07;95848.66;5005555;28;20073;-55
2021/07/24 04:20:27;;;;;;;29.83;15.05;;;;;;;24.87;83.68;95846.44;5004123;28;20073;-55
2021/07/24 04:22:56;;;;;;;21.48;15.30;;;;;;;24.83;80.95;95835.34;5009185;28;20143;-53
2021/07/24 04:25:24;;;;;;;19.75;14.73;;;;;;;24.67;84.45;95830.00;5004911;28;20065;-54
2021/07/24 04:27:54;;;;;;;22.33;15.85;;;;;;;24.44;86.40;95828.34;5006622;28;20066;-52
2021/07/24 04:30:23;;;;;;;21.33;15.10;;;;;;;24.49;87.13;95826.50;5005626;28;20060;-50
2021/07/24 04:32:51;;;;;;;21.30;15.18;;;;;;;25.26;81.42;95811.34;5005076;28;20061;-50
2021/07/24 04:35:19;;;;;;;18.70;13.82;;;;;;;25.51;75.22;95825.09;5007784;28;20062;-56
2021/07/24 04:37:48;;;;;;;18.05;14.57;;;;;;;25.83;69.37;95820.84;5006609;28;20080;-51
2021/07/24 04:40:16;;;;;;;19.60;14.65;;;;;;;25.93;69.27;95829.84;5005822;28;20073;-53
2021/07/24 04:42:44;;;;;;;19.67;14.77;;;;;;;25.65;71.18;95830.09;5001383;28;20058;-53
2021/07/24 04:45:15;;;;;;;17.92;14.52;;;;;;;25.76;71.25;95826.41;5005558;28;20066;-58
2021/07/24 04:47:44;;;;;;;20.35;14.35;;;;;;;26.06;68.53;95819.69;5005180;28;20153;-57
2021/07/24 04:50:13;;;;;;;19.42;14.38;;;;;;;25.25;75.99;95826.69;5007012;28;20080;-54
2021/07/24 04:52:41;;;;;;;18.20;15.73;;;;;;;26.65;66.65;95822.28;5005265;28;20085;-51
2021/07/24 04:55:11;;;;;;;18.80;15.02;;;;;;;27.22;61.78;95826.91;5007078;28;20077;-57
2021/07/24 04:57:39;;;;;;;18.20;14.65;;;;;;;27.23;60.18;95814.97;5008112;28;20076;-61
2021/07/24 05:00:09;;;;;;;22.52;15.05;;;;;;;26.87;60.96;95819.41;5007883;28;20061;-58
2021/07/24 05:02:39;;;;;;;18.60;14.55;;;;;;;29.12;50.89;95817.69;5007798;28;20140;-59
2021/07/24 05:05:09;;;;;;;17.13;14.57;;;;;;;29.91;47.46;95824.06;5011405;28;20081;-57
2021/07/24 05:07:37;;;;;;;18.98;14.82;;;;;;;30.30;45.05;95815.06;5007890;28;20536;-55
2021/07/24 05:10:09;;;;;;;21.40;15.10;;;;;;;30.20;44.67;95815.94;5009488;28;20520;-55
2021/07/24 05:12:37;;;;;;;20.63;14.63;;;;;;;30.73;42.94;95810.56;5006144;28;20084;-55
2021/07/24 05:15:07;;;;;;;18.40;13.73;;;;;;;29.58;47.38;95822.88;5009496;28;20070;-58
2021/07/24 05:17:41;;;;;;;17.77;13.82;;;;;;;31.81;41.81;95812.75;5010052;28;20077;-58
2021/07/24 05:20:10;;;;;;;17.63;14.40;;;;;;;30.46;44.34;95811.09;5010723;28;20082;-56
2021/07/24 05:22:38;;;;;;;16.10;13.43;;;;;;;30.98;43.84;95808.66;5007517;28;20073;-53
2021/07/24 05:25:07;;;;;;;15.85;12.52;;;;;;;29.85;46.49;95814.31;5009787;28;20072;-59
2021/07/24 05:27:36;;;;;;;16.23;12.85;;;;;;;30.44;44.51;95810.56;5008358;28;20073;-56
2021/07/24 05:30:05;;;;;;;18.42;13.25;;;;;;;28.72;49.63;95811.28;5007102;28;20096;-55
2021/07/24 05:32:34;;;;;;;16.88;13.57;;;;;;;29.03;48.56;95817.44;5008413;28;20096;-53
2021/07/24 05:35:05;;;;;;;20.33;13.20;;;;;;;28.77;51.18;95819.41;5011555;28;20078;-56
2021/07/24 05:37:33;;;;;;;16.88;12.63;;;;;;;28.28;51.19;95828.13;5008969;28;20547;-56
2021/07/24 05:40:02;;;;;;;17.65;13.95;;;;;;;28.38;53.39;95828.16;5001686;28;20069;-55
2021/07/24 05:42:30;;;;;;;16.63;13.18;;;;;;;28.10;51.61;95834.13;5009219;28;20092;-55
2021/07/24 05:44:59;;;;;;;17.38;12.98;;;;;;;27.20;59.42;95827.16;5007874;28;20073;-54
2021/07/24 05:47:27;;;;;;;21.50;13.57;;;;;;;28.34;54.22;95826.25;5009180;28;20080;-55
2021/07/24 05:49:55;;;;;;;16.13;12.70;;;;;;;28.12;56.36;95821.13;5011592;28;20081;-52
2021/07/24 05:52:25;;;;;;;17.23;13.30;;;;;;;26.79;64.26;95814.50;5007808;28;20061;-55
2021/07/24 05:54:54;;;;;;;15.95;13.45;;;;;;;26.98;62.78;95802.97;5005888;28;20065;-55
2021/07/24 05:57:22;;;;;;;17.05;13.65;;;;;;;27.97;58.96;95799.41;5010046;28;20100;-53
2021/07/24 05:59:51;;;;;;;16.37;13.50;;;;;;;27.90;58.91;95803.19;5007900;28;20072;-55
2021/07/24 06:02:20;;;;;;;19.20;13.57;;;;;;;28.46;57.32;95805.09;5009478;28;20084;-57
2021/07/24 06:04:50;;;;;;;16.90;13.07;;;;;;;27.80;62.07;95802.38;5008590;28;20066;-58
2021/07/24 06:07:18;;;;;;;17.70;13.88;;;;;;;28.41;60.11;95793.44;5008576;28;20076;-58
2021/07/24 06:09:48;;;;;;;19.20;14.15;;;;;;;26.98;67.58;95799.44;5006731;28;20080;-58
2021/07/24 06:12:17;;;;;;;20.05;14.60;;;;;;;28.39;58.99;95796.44;5008399;28;20376;-53
2021/07/24 06:14:45;;;;;;;19.75;14.32;;;;;;;26.55;71.42;95798.69;5007864;28;20073;-55
2021/07/24 06:17:14;;;;;;;19.90;13.80;;;;;;;28.06;63.65;95784.25;5007305;28;20108;-54
2021/07/24 06:19:42;;;;;;;18.13;13.63;;;;;;;26.32;74.08;95790.94;5004094;28;20066;-58
2021/07/24 06:22:10;;;;;;;19.40;13.90;;;;;;;28.52;63.49;95786.91;5011124;28;20555;-59
2021/07/24 06:24:38;;;;;;;18.02;13.68;;;;;;;28.55;60.68;95794.50;5006930;28;20096;-59
2021/07/24 06:27:08;;;;;;;20.85;14.23;;;;;;;27.08;70.16;95796.78;5006188;28;20639;-57
2021/07/24 06:29:36;;;;;;;18.42;14.27;;;;;;;28.58;61.43;95797.47;5009004;28;20078;-55
2021/07/24 06:32:06;;;;;;;18.30;13.85;;;;;;;27.97;63.63;95802.94;5008960;28;20073;-58
2021/07/24 06:34:34;;;;;;;17.75;13.88;;;;;;;28.38;60.70;95808.31;5006898;28;20579;-58
2021/07/24 06:37:03;;;;;;;16.95;13.27;;;;;;;28.23;62.65;95806.47;5007078;28;20486;-59
2021/07/24 06:39:31;;;;;;;15.75;12.98;;;;;;;28.94;58.94;95821.81;5008301;28;20206;-59
2021/07/24 06:41:59;;;;;;;16.95;13.73;;;;;;;29.33;56.95;95821.94;5006423;28;20093;-58
2021/07/24 06:44:29;;;;;;;18.35;13.57;;;;;;;28.94;59.85;95823.69;5008359;28;20093;-58
2021/07/24 06:46:57;;;;;;;21.48;14.07;;;;;;;27.86;65.15;95815.66;5007516;28;20089;-54
2021/07/24 06:49:26;;;;;;;17.67;13.95;;;;;;;28.38;65.09;95813.75;5007774;28;20057;-58
2021/07/24 06:51:54;;;;;;;19.05;13.60;;;;;;;28.59;61.54;95809.94;5007075;28;20062;-58
2021/07/24 06:54:22;;;;;;;17.33;13.23;;;;;;;29.27;61.09;95814.09;5006343;28;20062;-58
2021/07/24 06:56:51;;;;;;;18.73;13.45;;;;;;;29.38;58.55;95812.94;5006730;28;20524;-58
2021/07/24 06:59:19;;;;;;;20.17;13.23;;;;;;;29.13;59.39;95816.59;5010815;28;20122;-57
2021/07/24 07:01:48;;;;;;;17.67;13.05;;;;;;;28.73;61.47;95845.44;5007027;28;20076;-57
2021/07/24 07:04:17;;;;;;;17.48;13.75;;;;;;;29.42;54.15;95876.50;5007521;28;20111;-57
2021/07/24 07:06:45;;;;;;;17.90;13.68;;;;;;;29.87;54.42;95895.56;5005783;28;20529;-56
2021/07/24 07:09:14;;;;;;;17.20;13.48;;;;;;;29.73;50.46;95885.34;5007736;28;20410;-57
2021/07/24 07:11:42;;;;;;;15.85;13.20;;;;;;;29.31;52.62;95872.19;5005756;28;20081;-54
2021/07/24 07:14:10;;;;;;;19.77;13.18;;;;;;;30.51;50.07;95853.78;5010546;28;20081;-58
2021/07/24 07:16:39;;;;;;;18.67;14.18;;;;;;;29.47;50.75;95864.78;5007634;28;20066;-54
2021/07/24 07:19:08;;;;;;;17.23;13.07;;;;;;;30.96;44.99;95868.03;5004784;28;20068;-58
2021/07/24 07:21:37;;;;;;;15.65;12.95;;;;;;;31.42;44.95;95873.81;5003516;28;20640;-56
2021/07/24 07:24:06;;;;;;;16.23;13.10;;;;;;;30.44;46.63;95875.06;5005572;28;20065;-56
2021/07/24 07:26:34;;;;;;;17.55;12.65;;;;;;;31.61;44.24;95881.19;5003293;28;20084;-56
2021/07/24 07:29:03;;;;;;;18.48;13.38;;;;;;;31.25;44.54;95883.50;5006457;28;20085;-55
2021/07/24 07:31:32;;;;;;;17.23;12.93;;;;;;;30.34;48.02;95891.47;5004791;28;20077;-58
2021/07/24 07:34:01;;;;;;;16.40;13.05;;;;;;;31.12;45.57;95877.69;5004205;28;20073;-58
2021/07/24 07:36:31;;;;;;;15.65;13.13;;;;;;;31.30;45.04;95883.47;5004290;28;20070;-56
2021/07/24 07:38:59;;;;;;;;;;;;;;;31.17;45.00;95898.59;5003682;28;20066;-57
2021/07/24 07:41:28;;;;;;;17.73;12.80;;;;;;;31.31;44.33;95902.22;5005727;28;19964;-55
2021/07/24 07:43:57;;;;;;;19.52;14.05;;;;;;;32.01;42.99;95898.13;5004783;28;20086;-53
2021/07/24 07:46:25;;;;;;;16.87;12.87;;;;;;;32.19;42.01;95897.31;5003960;28;20066;-50
2021/07/24 07:48:54;;;;;;;17.48;13.85;;;;;;;32.41;41.49;95895.88;5008430;28;20546;-59
2021/07/24 07:51:22;;;;;;;18.17;13.05;;;;;;;32.37;42.16;95907.38;5003313;28;20092;-59
2021/07/24 07:53:51;;;;;;;18.75;13.75;;;;;;;31.76;43.98;95924.59;5002088;28;20076;-59
2021/07/24 07:56:20;;;;;;;21.52;13.90;;;;;;;30.71;48.74;95937.16;5007583;28;20077;-57
2021/07/24 07:58:48;;;;;;;17.75;13.95;;;;;;;31.82;45.42;95937.06;5003190;28;20084;-57
2021/07/24 08:01:16;;;;;;;21.25;14.15;;;;;;;32.56;41.77;95937.41;5005296;28;20072;-50
2021/07/24 08:03:45;;;;;;;20.08;15.80;;;;;;;33.12;39.92;95927.47;5004139;28;20062;-55
2021/07/24 08:06:14;;;;;;;19.80;15.05;;;;;;;33.53;38.65;95927.50;5005468;28;20077;-56
2021/07/24 08:08:42;;;;;;;19.15;15.07;;;;;;;33.60;38.89;95918.91;5004146;28;20077;-55
2021/07/24 08:11:12;;;;;;;18.70;13.95;;;;;;;33.45;41.00;95927.38;5004367;28;20123;-55
2021/07/24 08:13:40;;;;;;;18.42;14.20;;;;;;;32.87;43.87;95936.09;5004631;28;20608;-56
2021/07/24 08:16:14;;;;;;;19.40;14.98;;;;;;;32.29;41.38;95937.28;5001992;28;20523;-55
2021/07/24 08:18:42;;;;;;;17.00;14.52;;;;;;;33.91;39.25;95940.13;4998375;28;20070;-55
2021/07/24 08:21:11;;;;;;;17.98;15.10;;;;;;;33.24;40.96;95927.78;5004731;28;20548;-54
2021/07/24 08:23:40;;;;;;;19.52;15.13;;;;;;;33.16;41.72;95933.13;5003286;28;20524;-51
2021/07/24 08:26:08;;;;;;;17.02;13.85;;;;;;;32.48;44.88;95940.00;5004799;28;20081;-57
2021/07/24 08:28:38;;;;;;;19.50;12.82;;;;;;;32.47;46.31;95935.66;5004764;28;20057;-52
2021/07/24 08:31:07;;;;;;;15.57;12.23;;;;;;;32.20;46.15;95937.13;5002373;28;20084;-57
2021/07/24 08:33:35;;;;;;;15.05;12.07;;;;;;;31.75;49.75;95941.28;5000459;28;20069;-55
2021/07/24 08:36:04;;;;;;;17.98;12.13;;;;;;;32.32;46.35;95933.97;5002033;28;20106;-58
2021/07/24 08:38:33;;;;;;;16.30;12.07;;;;;;;30.51;51.51;95930.78;5003084;28;20081;-54
2021/07/24 08:41:01;;;;;;;16.25;12.13;;;;;;;30.81;51.31;95925.41;5003643;28;20104;-56
2021/07/24 08:43:30;;;;;;;17.58;12.68;;;;;;;31.26;48.51;95928.75;5001221;28;20057;-56
2021/07/24 08:46:00;;;;;;;16.17;13.23;;;;;;;30.61;53.40;95932.59;5001583;28;20057;-55
2021/07/24 08:48:28;;;;;;;;;;;;;;;31.23;52.52;95921.97;5002971;28;20065;-56
2021/07/24 08:50:57;;;;;;;18.05;12.75;;;;;;;31.15;52.16;95936.22;5002351;28;20565;-53
2021/07/24 08:53:26;;;;;;;15.93;12.57;;;;;;;30.74;52.17;95934.66;5000833;28;20732;-56
2021/07/24 08:56:02;;;;;;;18.45;12.90;;;;;;;31.68;48.81;95915.16;5003518;28;20154;-53
2021/07/24 08:58:32;;;;;;;17.70;13.10;;;;;;;32.51;46.27;95914.84;5002705;28;20092;-56
2021/07/24 09:01:02;;;;;;;18.75;13.65;;;;;;;31.21;50.33;95914.09;5001472;28;20077;-55
2021/07/24 09:03:34;;;;;;;18.00;13.50;;;;;;;32.08;45.28;95910.28;5002733;28;20108;-56
2021/07/24 09:06:04;;;;;;;20.40;13.77;;;;;;;32.84;45.54;95899.28;5000154;28;20057;-55
2021/07/24 09:08:32;;;;;;;21.25;13.13;;;;;;;33.47;41.89;95900.53;5000902;28;20100;-48
2021/07/24 09:11:01;;;;;;;17.15;13.95;;;;;;;33.85;40.81;95898.41;5005612;28;20091;-57
2021/07/24 09:13:30;;;;;;;17.50;13.32;;;;;;;33.48;42.55;95891.25;4998935;28;20065;-56
2021/07/24 09:15:59;;;;;;;16.17;13.18;;;;;;;32.91;42.80;95888.75;5003420;28;20457;-55
2021/07/24 09:18:29;;;;;;;17.08;12.45;;;;;;;33.11;43.13;95889.53;5002148;28;20069;-56
2021/07/24 09:20:58;;;;;;;18.48;12.98;;;;;;;33.78;41.67;95887.88;5000875;28;20046;-56
2021/07/24 09:23:29;;;;;;;17.10;13.60;;;;;;;33.01;41.61;95869.47;5000131;28;20073;-55
2021/07/24 09:25:57;;;;;;;18.45;13.23;;;;;;;32.00;44.82;95869.22;5003819;28;20085;-54
2021/07/24 09:28:25;;;;;;;21.83;12.70;;;;;;;32.11;47.37;95859.78;5000964;28;20065;-55
2021/07/24 09:30:54;;;;;;;15.52;12.30;;;;;;;32.19;46.58;95848.19;5002391;28;20082;-55
2021/07/24 09:33:22;;;;;;;16.38;12.32;;;;;;;32.12;48.00;95831.41;5001724;28;20058;-54
2021/07/24 09:36:03;;;;;;;15.97;11.97;;;;;;;31.65;52.27;95817.59;5000297;28;20073;-57
2021/07/24 09:38:33;;;;;;;16.42;12.27;;;;;;;32.37;50.48;95813.78;5000309;28;20093;-52
2021/07/24 09:41:04;;;;;;;16.55;12.98;;;;;;;31.65;49.98;95811.34;5006406;28;20080;-56
2021/07/24 09:43:34;;;;;;;16.20;12.35;;;;;;;31.30;54.04;95812.63;5005148;28;20065;-51
2021/07/24 09:46:12;;;;;;;16.48;12.63;;;;;;;31.25;53.32;95820.84;5009349;28;20066;-52
2021/07/24 09:48:41;;;;;;;16.30;12.40;;;;;;;31.96;49.30;95827.28;5008328;28;20064;-53
2021/07/24 09:51:11;;;;;;;15.23;12.57;;;;;;;32.64;48.57;95848.56;5009926;28;20061;-55
2021/07/24 09:53:40;;;;;;;;;;;;;;;32.67;46.09;95860.81;5008281;28;20441;-49
2021/07/24 09:56:11;;;;;;;20.50;12.30;;;;;;;31.57;53.00;95872.78;5009041;28;20347;-53
2021/07/24 09:58:40;;;;;;;18.67;13.38;;;;;;;32.52;50.00;95880.97;5007225;28;20084;-54
2021/07/24 10:01:09;;;;;;;16.77;13.77;;;;;;;31.68;55.56;95878.91;5009314;28;20073;-51
2021/07/24 10:03:40;;;;;;;20.33;13.93;;;;;;;31.74;56.27;95883.19;5008188;28;20049;-50
2021/07/24 10:06:13;;;;;;;19.55;14.20;;;;;;;31.17;57.99;95876.81;5009710;28;20429;-52
2021/07/24 10:08:43;;;;;;;18.02;13.68;;;;;;;31.77;53.42;95876.34;5006119;28;22539;-55
2021/07/24 10:11:12;;;;;;;21.60;13.88;;;;;;;31.56;57.68;95879.34;5010115;28;20088;-55
2021/07/24 10:13:42;;;;;;;22.63;14.43;;;;;;;31.93;50.65;95883.22;5007838;28;20054;-54
2021/07/24 10:16:10;;;;;;;21.17;14.48;;;;;;;32.35;50.71;95882.31;5007910;28;20066;-52
2021/07/24 10:18:41;;;;;;;21.35;13.88;;;;;;;32.94;49.99;95879.97;5007721;28;20066;-55
2021/07/24 10:21:11;;;;;;;17.55;14.27;;;;;;;32.80;51.39;95876.41;5006163;28;20072;-55
2021/07/24 10:23:39;;;;;;;22.13;14.63;;;;;;;33.76;47.93;95878.38;5004633;28;20501;-56
2021/07/24 10:26:11;;;;;;;19.20;14.48;;;;;;;34.41;45.46;95879.88;5008041;28;20485;-50
2021/07/24 10:28:53;;;;;;;22.33;14.98;;;;;;;33.93;43.85;95875.78;5008041;28;20069;-54
2021/07/24 10:31:25;;;;;;;18.27;14.18;;;;;;;34.13;42.33;95873.72;5005322;28;20688;-52
2021/07/24 10:33:59;;;;;;;21.30;14.73;;;;;;;33.05;46.25;95866.94;5011089;28;20061;-56
2021/07/24 10:36:37;;;;;;;19.77;14.45;;;;;;;32.37;45.88;95860.19;5006506;28;20078;-56
2021/07/24 10:39:08;;;;;;;18.15;14.25;;;;;;;32.73;47.97;95854.16;5007371;28;20072;-56
2021/07/24 10:41:41;;;;;;;22.35;15.02;;;;;;;33.84;45.52;95841.28;5006134;28;20085;-56
2021/07/24 10:44:11;;;;;;;17.67;13.88;;;;;;;33.96;44.85;95833.31;5010184;28;20082;-52
2021/07/24 10:47:15;;;;;;;18.38;14.43;;;;;;;35.27;41.19;95830.25;5005938;28;20490;-56
2021/07/24 10:50:13;;;;;;;21.42;15.35;;;;;;;35.59;40.63;95823.59;5005756;28;20065;-56
2021/07/24 10:53:11;;;;;;;20.20;16.08;;;;;;;36.03;38.25;95818.13;5003695;28;20068;-55
2021/07/24 10:55:41;;;;;;;20.52;15.60;;;;;;;35.96;37.83;95810.38;5002157;28;20062;-53
2021/07/24 10:58:10;;;;;;;16.83;14.02;;;;;;;35.48;38.44;95815.94;5007165;28;20065;-53
2021/07/24 11:00:50;;;;;;;21.27;14.63;;;;;;;36.07;37.31;95805.38;5006077;28;20080;-55
2021/07/24 11:03:37;;;;;;;20.45;14.15;;;;;;;36.53;35.60;95810.16;5004326;28;20073;-56
2021/07/24 11:06:27;;;;;;;20.20;14.52;;;;;;;36.76;35.96;95807.22;5004226;28;20076;-51
2021/07/24 11:09:20;;;;;;;18.70;14.53;;;;;;;38.14;34.16;95807.56;5005535;28;20077;-57
2021/07/24 11:11:50;;;;;;;18.58;14.57;;;;;;;36.98;34.38;95815.22;5006568;28;20068;-53
2021/07/24 11:14:58;;;;;;;18.08;14.43;;;;;;;37.39;34.34;95805.47;5008289;28;20104;-54
2021/07/24 11:17:26;;;;;;;19.02;14.93;;;;;;;35.87;35.67;95812.31;5002491;28;20489;-56
2021/07/24 11:20:33;;;;;;;21.48;14.90;;;;;;;37.12;35.84;95805.94;5008674;28;20516;-55
2021/07/24 11:23:05;;;;;;;22.38;16.40;;;;;;;36.19;36.39;95801.97;5003453;28;20413;-56
2021/07/24 11:25:39;;;;;;;19.95;15.73;;;;;;;36.48;36.37;95796.63;5006553;28;20069;-55
2021/07/24 11:28:08;;;;;;;19.58;15.02;;;;;;;36.03;37.98;95799.75;5004370;28;20062;-56
2021/07/24 11:30:36;;;;;;;22.03;15.73;;;;;;;35.01;38.64;95802.75;5005152;28;20070;-55